Time;durP1;ratioP1;P1;durP2;ratioP2;P2;SDS_P1;SDS_P2;PMS_P1;PMS_P2;Temp;Humidity;BMP_temperature;BMP_pressure;BME280_temperature;BME280_humidity;BME280_pressure;Samples;Min_cycle;Max_cycle;Signal;HPM_P1;HPM_P2
2021/12/20 00:02:24;;;;;;;0.10;0.10;;;;;;;4.36;59.57;99557.44;5021774;28;20050;-75
2021/12/20 00:04:52;;;;;;;0.10;0.10;;;;;;;4.36;59.44;99545.19;5022535;28;20706;-74
2021/12/20 00:07:19;;;;;;;1.05;1.05;;;;;;;4.37;59.15;99562.53;5023038;28;20059;-73
2021/12/20 00:09:48;;;;;;;0.10;0.10;;;;;;;4.36;59.37;99567.88;5022503;28;20633;-75
2021/12/20 00:12:15;;;;;;;0.10;0.10;;;;;;;4.36;59.36;99576.56;5021208;28;20057;-75
2021/12/20 00:14:42;;;;;;;5.60;2.50;;;;;;;4.35;59.30;99572.25;5021485;28;20060;-73
2021/12/20 00:17:09;;;;;;;0.75;0.75;;;;;;;4.37;59.40;99572.16;5020880;28;20064;-74
2021/12/20 00:19:36;;;;;;;0.10;0.10;;;;;;;4.38;59.52;99566.84;5076198;28;20059;-77
2021/12/20 00:22:03;;;;;;;0.10;0.10;;;;;;;4.37;59.58;99565.16;5086848;28;20044;-76
2021/12/20 00:24:31;;;;;;;0.10;0.10;;;;;;;4.37;59.38;99559.09;5087045;28;20048;-77
2021/12/20 00:27:02;;;;;;;0.10;0.10;;;;;;;4.34;59.34;99544.44;5086142;28;20051;-76
2021/12/20 00:29:29;;;;;;;17.83;1.55;;;;;;;4.32;59.23;99559.38;5087791;28;20689;-71
2021/12/20 00:31:56;;;;;;;0.77;0.73;;;;;;;4.32;59.18;99558.53;5086877;28;20073;-75
2021/12/20 00:34:23;;;;;;;1.75;1.65;;;;;;;4.31;59.11;99568.16;5087881;28;20044;-74
2021/12/20 00:36:57;;;;;;;0.95;0.95;;;;;;;4.28;59.20;99586.59;5087110;28;20048;-74
2021/12/20 00:42:10;;;;;;;0.10;0.10;;;;;;;4.27;59.32;99595.41;5085012;28;20106;-74
2021/12/20 00:44:37;;;;;;;0.10;0.10;;;;;;;4.25;59.69;99594.66;5084240;28;20044;-75
2021/12/20 00:47:05;;;;;;;0.10;0.10;;;;;;;4.25;59.71;99575.47;5084661;28;20541;-74
2021/12/20 00:49:33;;;;;;;0.10;0.10;;;;;;;4.22;59.71;99592.19;5084939;28;20048;-74
2021/12/20 00:52:00;;;;;;;0.10;0.10;;;;;;;4.23;59.72;99596.47;5084721;28;20400;-75
2021/12/20 00:54:28;;;;;;;0.10;0.10;;;;;;;4.22;59.83;99584.34;5083699;28;20040;-73
2021/12/20 00:56:54;;;;;;;0.20;0.20;;;;;;;4.20;59.83;99599.28;5084239;28;20056;-74
2021/12/20 00:59:23;;;;;;;0.20;0.20;;;;;;;4.21;59.96;99593.13;5084535;28;20052;-75
2021/12/20 01:01:52;;;;;;;0.10;0.10;;;;;;;4.16;59.92;99587.31;5085458;28;20120;-73
2021/12/20 01:04:18;;;;;;;0.10;0.10;;;;;;;4.11;60.09;99595.41;5082658;28;20669;-73
2021/12/20 01:06:46;;;;;;;0.10;0.10;;;;;;;4.08;60.22;99598.19;5083977;28;20067;-73
2021/12/20 01:09:14;;;;;;;0.10;0.10;;;;;;;4.02;60.20;99607.22;5084503;28;20195;-71
2021/12/20 01:11:43;;;;;;;0.10;0.10;;;;;;;3.99;60.38;99590.88;5084382;28;20044;-71
2021/12/20 01:14:11;;;;;;;1.30;1.30;;;;;;;3.95;60.51;99590.19;5083509;28;20054;-77
2021/12/20 01:16:40;;;;;;;0.10;0.10;;;;;;;3.97;60.25;99585.72;5089043;28;20465;-84
2021/12/20 01:19:07;;;;;;;0.10;0.10;;;;;;;3.99;60.37;99586.47;5090882;28;20100;-73
2021/12/20 01:21:34;;;;;;;4.93;3.00;;;;;;;4.04;60.19;99601.09;5099427;28;20044;-79
2021/12/20 01:24:01;;;;;;;0.10;0.10;;;;;;;4.07;60.24;99598.28;5099847;28;20122;-79
2021/12/20 01:26:28;;;;;;;0.20;0.20;;;;;;;4.09;60.15;99601.63;5095311;28;20047;-77
2021/12/20 01:28:55;;;;;;;0.40;0.40;;;;;;;4.10;60.18;99600.72;5093990;28;20415;-79
2021/12/20 01:31:23;;;;;;;0.10;0.10;;;;;;;4.12;60.09;99604.09;5093528;28;20512;-77
2021/12/20 01:33:51;;;;;;;0.10;0.10;;;;;;;4.12;60.14;99607.53;5092758;28;20052;-74
2021/12/20 01:36:18;;;;;;;0.38;0.38;;;;;;;4.12;59.89;99601.47;5092814;28;20067;-75
2021/12/20 01:38:45;;;;;;;0.10;0.10;;;;;;;4.13;60.10;99588.31;5091826;28;20044;-79
2021/12/20 01:41:13;;;;;;;1.55;0.85;;;;;;;4.14;60.02;99594.38;5091008;28;20072;-76
2021/12/20 01:43:40;;;;;;;0.10;0.10;;;;;;;4.15;59.72;99601.31;5091764;28;20048;-77
2021/12/20 01:46:07;;;;;;;0.75;0.75;;;;;;;4.14;59.96;99600.47;5089946;28;20062;-78
2021/12/20 01:48:36;;;;;;;0.32;0.32;;;;;;;4.16;60.05;99597.75;5091854;28;20044;-79
2021/12/20 01:53:52;;;;;;;0.20;0.20;;;;;;;4.16;59.91;99596.00;5091289;28;20043;-80
2021/12/20 01:56:19;;;;;;;0.10;0.10;;;;;;;4.17;59.94;99599.44;5089416;28;20059;-80
2021/12/20 01:58:46;;;;;;;0.70;0.70;;;;;;;4.15;59.96;99598.69;5090619;28;20042;-78
2021/12/20 02:01:19;;;;;;;0.85;0.85;;;;;;;4.16;60.11;99588.16;5090071;28;20526;-78
2021/12/20 02:03:55;;;;;;;0.10;0.10;;;;;;;4.18;59.83;99595.94;5091924;28;20101;-82
2021/12/20 02:06:28;;;;;;;0.10;0.10;;;;;;;4.20;59.78;99599.28;5091885;28;20056;-82
2021/12/20 02:08:57;;;;;;;0.10;0.10;;;;;;;4.21;59.87;99606.19;5091651;28;20482;-81
2021/12/20 02:11:24;;;;;;;0.10;0.10;;;;;;;4.23;59.74;99601.72;5091087;28;20048;-79
2021/12/20 02:13:53;;;;;;;0.10;0.10;;;;;;;4.24;59.79;99594.72;5091528;28;20052;-80
2021/12/20 02:16:21;;;;;;;0.10;0.10;;;;;;;4.22;59.85;99587.81;5090389;28;20059;-76
2021/12/20 02:18:49;;;;;;;0.30;0.30;;;;;;;4.21;59.73;99591.38;5088373;28;20044;-75
2021/12/20 02:21:18;;;;;;;0.10;0.10;;;;;;;4.24;59.76;99584.28;5090273;28;20044;-76
2021/12/20 02:23:45;;;;;;;0.10;0.10;;;;;;;4.26;59.70;99582.41;5089239;28;20052;-76
2021/12/20 02:26:14;;;;;;;0.10;0.10;;;;;;;4.27;59.67;99584.94;5088382;28;20629;-77
2021/12/20 02:28:45;;;;;;;0.10;0.10;;;;;;;4.28;59.64;99591.84;5088817;28;20060;-76
2021/12/20 02:39:28;;;;;;;8.68;3.78;;;;;;;4.10;66.50;99585.03;5110446;28;20054;-78
2021/12/20 02:41:54;;;;;;;5.22;3.13;;;;;;;4.10;66.34;99587.66;5110066;28;20048;-77
2021/12/20 02:44:24;;;;;;;10.18;3.25;;;;;;;4.14;66.26;99590.03;5108343;28;20074;-78
2021/12/20 02:47:04;;;;;;;9.27;3.25;;;;;;;4.15;65.71;99580.41;5110594;28;20050;-74
2021/12/20 02:49:31;;;;;;;8.35;3.63;;;;;;;4.16;65.00;99574.22;5109629;28;20558;-74
2021/12/20 02:52:03;;;;;;;8.70;4.03;;;;;;;4.19;64.80;99568.84;5109869;28;20505;-79
2021/12/20 02:54:31;;;;;;;7.38;3.88;;;;;;;4.15;64.52;99585.63;5108571;28;20422;-76
2021/12/20 02:56:58;;;;;;;12.32;4.00;;;;;;;4.14;64.28;99569.13;5109599;28;20043;-78
2021/12/20 02:59:25;;;;;;;6.97;3.47;;;;;;;4.17;64.63;99589.00;5109930;28;20692;-75
2021/12/20 03:01:55;;;;;;;6.22;3.55;;;;;;;4.19;64.28;99587.97;5108334;28;20053;-80
2021/12/20 03:04:22;;;;;;;5.97;3.33;;;;;;;4.21;63.93;99591.38;5108749;28;20051;-76
2021/12/20 03:06:52;;;;;;;6.20;3.38;;;;;;;4.17;64.04;99589.84;5108408;28;20414;-73
2021/12/20 03:09:25;;;;;;;10.88;4.60;;;;;;;4.21;64.26;99590.50;5108936;28;20055;-79
2021/12/20 03:11:55;;;;;;;8.75;3.28;;;;;;;4.22;64.12;99587.81;5107819;28;20122;-74
2021/12/20 03:14:26;;;;;;;13.65;7.45;;;;;;;4.21;63.71;99582.66;5106891;28;20087;-74
2021/12/20 03:16:54;;;;;;;16.13;7.05;;;;;;;4.17;63.41;99589.00;5109754;28;20051;-74
2021/12/20 03:19:22;;;;;;;8.63;4.78;;;;;;;4.20;63.83;99586.22;5109438;28;20135;-78
2021/12/20 03:21:49;;;;;;;8.63;4.90;;;;;;;4.21;63.61;99580.03;5109045;28;20506;-78
2021/12/20 03:24:16;;;;;;;11.30;5.05;;;;;;;4.15;63.51;99575.19;5108057;28;20051;-80
2021/12/20 03:26:47;;;;;;;9.18;4.10;;;;;;;4.12;63.54;99580.56;5110451;28;20044;-79
2021/12/20 03:29:15;;;;;;;6.80;3.67;;;;;;;4.10;63.70;99571.97;5108514;28;20487;-78
2021/12/20 03:31:42;;;;;;;7.60;4.50;;;;;;;4.02;63.77;99575.88;5108632;28;20775;-72
2021/12/20 03:34:10;;;;;;;8.38;4.90;;;;;;;4.01;63.75;99574.16;5109263;28;20044;-76
2021/12/20 03:36:37;;;;;;;7.22;4.05;;;;;;;3.96;63.82;99577.97;5109020;28;20075;-75
2021/12/20 03:39:08;;;;;;;7.43;3.70;;;;;;;3.96;64.29;99578.84;5107794;28;20052;-79
2021/12/20 03:41:36;;;;;;;9.10;4.30;;;;;;;3.94;63.87;99569.38;5105840;28;20058;-70
2021/12/20 03:44:06;;;;;;;7.10;3.05;;;;;;;3.95;63.79;99587.59;5107965;28;20168;-70
2021/12/20 03:46:33;;;;;;;6.00;3.47;;;;;;;3.94;63.82;99588.53;5109455;28;20039;-73
2021/12/20 03:49:02;;;;;;;6.78;4.35;;;;;;;3.94;63.79;99577.22;5108804;28;20121;-75
2021/12/20 03:51:29;;;;;;;5.82;3.80;;;;;;;3.91;63.56;99573.03;5107723;28;20131;-77
2021/12/20 03:53:56;;;;;;;15.73;6.65;;;;;;;4.02;64.02;99580.25;5106979;28;20055;-74
2021/12/20 03:56:23;;;;;;;22.05;8.88;;;;;;;4.02;64.11;99575.88;5108779;28;20043;-76
2021/12/20 03:58:50;;;;;;;10.57;5.80;;;;;;;4.00;64.15;99562.06;5108382;28;20058;-72
2021/12/20 04:01:18;;;;;;;11.05;5.65;;;;;;;4.01;64.17;99579.41;5107477;28;20051;-75
2021/12/20 04:03:45;;;;;;;10.20;5.60;;;;;;;4.04;64.38;99577.56;5108522;28;20047;-74
2021/12/20 04:06:14;;;;;;;12.25;5.70;;;;;;;4.01;64.14;99573.34;5108719;28;20043;-77
2021/12/20 04:08:42;;;;;;;16.38;9.52;;;;;;;4.00;64.48;99580.34;5107443;28;20046;-75
2021/12/20 04:11:09;;;;;;;12.57;6.07;;;;;;;4.02;64.05;99586.31;5109058;28;20059;-79
2021/12/20 04:13:37;;;;;;;22.90;9.02;;;;;;;4.07;64.29;99593.91;5108895;28;20051;-73
2021/12/20 04:16:05;;;;;;;10.85;4.75;;;;;;;4.10;64.00;99587.66;5106687;28;20055;-78
2021/12/20 04:18:33;;;;;;;7.53;3.50;;;;;;;4.02;64.14;99590.72;5108126;28;20483;-77
2021/12/20 04:21:00;;;;;;;18.35;9.20;;;;;;;4.08;63.64;99595.59;5087894;28;20044;-74
2021/12/20 04:23:27;;;;;;;21.33;10.38;;;;;;;4.12;64.03;99601.47;5107710;28;20048;-77
2021/12/20 04:25:55;;;;;;;26.73;12.55;;;;;;;4.12;64.25;99597.09;5107937;28;20440;-77
2021/12/20 04:28:22;;;;;;;18.33;8.43;;;;;;;4.10;64.30;99598.94;5120579;28;20052;-76
2021/12/20 04:30:48;;;;;;;15.48;8.15;;;;;;;4.08;64.29;99592.13;5112696;28;20146;-79
2021/12/20 04:33:15;;;;;;;10.13;5.88;;;;;;;4.06;64.31;99604.44;5108767;28;20044;-79
2021/12/20 04:35:44;;;;;;;14.30;7.15;;;;;;;4.09;64.34;99589.44;5111039;28;20048;-71
2021/12/20 04:38:11;;;;;;;11.40;5.22;;;;;;;4.06;64.48;99596.59;5109609;28;20055;-74
2021/12/20 04:40:38;;;;;;;14.77;6.20;;;;;;;4.08;64.40;99599.97;5109375;28;20050;-77
2021/12/20 04:43:05;;;;;;;11.75;5.40;;;;;;;4.02;64.06;99601.16;5108855;28;20046;-76
2021/12/20 04:45:33;;;;;;;11.73;4.75;;;;;;;4.05;64.62;99585.28;5106298;28;20047;-77
2021/12/20 04:48:01;;;;;;;9.85;4.35;;;;;;;3.94;64.55;99577.22;5109003;28;20692;-76
2021/12/20 04:50:29;;;;;;;9.38;4.53;;;;;;;4.00;64.96;99600.41;5109439;28;20043;-81
2021/12/20 04:52:58;;;;;;;9.13;4.60;;;;;;;4.01;65.04;99589.00;5110252;28;20391;-79
2021/12/20 04:55:26;;;;;;;9.90;5.95;;;;;;;4.02;64.60;99595.94;5115515;28;20058;-79
2021/12/20 04:57:54;;;;;;;10.10;5.35;;;;;;;4.00;64.89;99597.81;5108731;28;20050;-74
2021/12/20 05:00:25;;;;;;;10.32;5.70;;;;;;;4.01;64.77;99589.84;5110603;28;20062;-79
2021/12/20 05:02:52;;;;;;;6.40;3.88;;;;;;;4.06;64.82;99596.59;5115572;28;20040;-76
2021/12/20 05:05:21;;;;;;;8.15;3.70;;;;;;;4.08;64.70;99598.19;5115754;28;20062;-76
2021/12/20 05:07:48;;;;;;;13.75;4.88;;;;;;;4.04;64.62;99593.25;5111236;28;20057;-76
2021/12/20 05:10:26;;;;;;;6.35;3.85;;;;;;;4.00;63.81;99598.63;5111722;28;20510;-74
2021/12/20 05:12:55;;;;;;;6.78;4.00;;;;;;;3.98;62.46;99605.72;5111461;28;20051;-74
2021/12/20 05:15:22;;;;;;;6.80;3.72;;;;;;;3.98;61.61;99605.72;5108328;28;20050;-71
2021/12/20 05:17:50;;;;;;;9.05;3.97;;;;;;;4.00;61.56;99611.69;5113340;28;20048;-78
2021/12/20 05:20:17;;;;;;;6.25;4.25;;;;;;;4.03;61.42;99600.22;5113968;28;20535;-82
2021/12/20 05:22:44;;;;;;;9.52;4.20;;;;;;;4.04;61.27;99603.69;5114305;28;20043;-73
2021/12/20 05:25:15;;;;;;;6.25;3.55;;;;;;;3.98;61.25;99599.63;5118625;28;20039;-75
2021/12/20 05:27:43;;;;;;;10.20;3.88;;;;;;;4.07;61.58;99608.72;5130481;28;20037;-74
2021/12/20 05:30:12;;;;;;;7.65;3.72;;;;;;;4.09;61.73;99612.97;5132725;28;20044;-74
2021/12/20 05:32:39;;;;;;;9.35;3.92;;;;;;;4.03;62.06;99595.00;5128257;28;20136;-80
2021/12/20 05:35:10;;;;;;;11.13;5.07;;;;;;;4.04;62.25;99606.31;5128237;28;20051;-80
2021/12/20 05:37:37;;;;;;;8.23;6.07;;;;;;;4.03;62.12;99602.84;5128436;28;20088;-74
2021/12/20 05:40:05;;;;;;;6.78;3.88;;;;;;;4.01;62.16;99602.91;5116732;28;20048;-79
2021/12/20 05:42:33;;;;;;;9.80;4.80;;;;;;;3.94;62.58;99612.06;5082718;28;20039;-76
2021/12/20 05:45:04;;;;;;;13.50;5.18;;;;;;;3.96;63.02;99618.03;5114613;28;20039;-73
2021/12/20 05:47:32;;;;;;;8.45;5.25;;;;;;;3.94;63.20;99632.09;5118764;28;20059;-73
2021/12/20 05:49:58;;;;;;;6.45;4.97;;;;;;;3.95;63.10;99632.00;5120761;28;20051;-77
2021/12/20 05:52:25;;;;;;;8.73;5.30;;;;;;;3.92;63.24;99632.16;5113379;28;20415;-79
2021/12/20 05:54:52;;;;;;;7.75;5.13;;;;;;;3.91;62.78;99616.59;5114584;28;20043;-79
2021/12/20 05:57:19;;;;;;;7.32;4.05;;;;;;;3.92;62.85;99629.56;5110998;28;20478;-76
2021/12/20 05:59:46;;;;;;;6.82;3.97;;;;;;;3.97;62.66;99640.59;5108790;28;20039;-76
2021/12/20 06:02:14;;;;;;;11.82;6.22;;;;;;;4.00;62.65;99630.00;5108312;28;20238;-73
2021/12/20 06:04:42;;;;;;;12.43;5.97;;;;;;;4.05;62.19;99642.78;5108337;28;20047;-75
2021/12/20 06:07:09;;;;;;;11.45;7.07;;;;;;;4.12;61.83;99641.50;5108193;28;20526;-75
2021/12/20 06:09:37;;;;;;;10.00;5.30;;;;;;;4.09;61.83;99653.91;5109682;28;20419;-81
2021/12/20 06:12:04;;;;;;;10.27;5.75;;;;;;;4.15;61.77;99645.75;5111851;28;20165;-75
2021/12/20 06:14:32;;;;;;;8.05;4.93;;;;;;;4.19;61.57;99636.78;5107581;28;20384;-75
2021/12/20 06:17:00;;;;;;;6.28;4.82;;;;;;;4.21;61.45;99650.63;5110092;28;20068;-76
2021/12/20 06:19:30;;;;;;;9.27;6.00;;;;;;;4.16;61.62;99657.88;5111176;28;20043;-78
2021/12/20 06:21:57;;;;;;;17.55;8.23;;;;;;;4.14;61.66;99663.22;5112860;28;20063;-79
2021/12/20 06:24:24;;;;;;;13.88;7.18;;;;;;;4.18;61.51;99654.25;5109375;28;20051;-73
2021/12/20 06:26:52;;;;;;;11.18;6.15;;;;;;;4.23;61.55;99659.22;5108747;28;20190;-74
2021/12/20 06:29:19;;;;;;;13.25;6.15;;;;;;;4.24;61.29;99663.53;5110662;28;20613;-76
2021/12/20 06:31:47;;;;;;;10.25;6.63;;;;;;;4.22;61.55;99660.16;5111026;28;20047;-75
2021/12/20 06:34:14;;;;;;;11.30;7.82;;;;;;;4.18;61.61;99669.09;5109602;28;20047;-74
2021/12/20 06:36:42;;;;;;;11.48;6.63;;;;;;;4.14;62.01;99667.56;5109916;28;20403;-77
2021/12/20 06:39:11;;;;;;;8.73;6.35;;;;;;;4.15;62.28;99682.34;5110161;28;20043;-72
2021/12/20 06:41:38;;;;;;;12.40;6.82;;;;;;;4.08;62.80;99681.81;5111971;28;20047;-78
2021/12/20 06:44:06;;;;;;;12.48;7.72;;;;;;;4.08;63.08;99688.81;5108392;28;20046;-78
2021/12/20 06:46:38;;;;;;;12.05;7.35;;;;;;;4.13;63.32;99699.88;5104839;28;20051;-79
2021/12/20 06:49:08;;;;;;;14.93;9.45;;;;;;;4.08;63.37;99688.81;5105486;27;20039;-80
2021/12/20 06:51:39;;;;;;;11.13;7.57;;;;;;;3.95;64.08;99686.88;5087680;28;20055;-80
2021/12/20 06:54:09;;;;;;;15.07;8.65;;;;;;;4.00;64.08;99702.31;5097966;28;20520;-81
2021/12/20 06:56:37;;;;;;;20.98;10.60;;;;;;;3.99;63.80;99706.69;5109965;28;20047;-79
2021/12/20 06:59:06;;;;;;;16.45;11.57;;;;;;;3.98;63.87;99710.25;5107818;28;20043;-77
2021/12/20 07:01:34;;;;;;;14.65;9.10;;;;;;;4.02;63.51;99711.75;5096640;28;20044;-81
2021/12/20 07:04:04;;;;;;;12.75;8.57;;;;;;;4.08;63.29;99715.78;5090040;28;20070;-82
2021/12/20 07:06:31;;;;;;;10.68;7.75;;;;;;;4.07;63.28;99713.25;5107015;28;20298;-80
2021/12/20 07:08:59;;;;;;;12.75;8.15;;;;;;;4.06;63.34;99716.81;5108633;28;20043;-80
2021/12/20 07:11:28;;;;;;;13.95;8.43;;;;;;;4.06;63.52;99727.28;5111020;28;20059;-81
2021/12/20 07:13:55;;;;;;;11.23;8.57;;;;;;;4.02;63.58;99716.97;5110022;28;20054;-81
2021/12/20 07:16:22;;;;;;;17.95;10.38;;;;;;;4.01;63.69;99728.34;5108234;28;20048;-76
2021/12/20 07:18:49;;;;;;;15.50;11.85;;;;;;;4.01;63.78;99728.34;5099028;28;20050;-76
2021/12/20 07:21:17;;;;;;;17.23;11.45;;;;;;;4.01;63.81;99725.72;5092260;28;20056;-82
2021/12/20 07:23:45;;;;;;;15.68;10.82;;;;;;;3.93;63.95;99733.16;5089291;28;20691;-79
2021/12/20 07:26:14;;;;;;;14.32;10.13;;;;;;;3.97;63.97;99739.06;5102460;28;20047;-77
2021/12/20 07:28:43;;;;;;;13.35;10.60;;;;;;;3.91;64.21;99734.16;5102433;28;20043;-75
2021/12/20 07:31:13;;;;;;;16.17;10.93;;;;;;;3.86;64.45;99736.19;5097454;28;20048;-76
2021/12/20 07:33:40;;;;;;;16.88;11.65;;;;;;;3.93;64.32;99741.00;5081309;28;20043;-75
2021/12/20 07:36:08;;;;;;;16.90;9.68;;;;;;;3.94;64.41;99750.53;5083407;28;20044;-74
2021/12/20 07:38:35;;;;;;;24.25;13.00;;;;;;;3.99;64.29;99748.50;5080716;28;20074;-76
2021/12/20 07:41:03;;;;;;;16.08;12.68;;;;;;;4.03;63.84;99743.94;5080745;28;20044;-72
2021/12/20 07:43:31;;;;;;;16.17;10.65;;;;;;;4.04;63.86;99739.59;5080264;28;20075;-73
2021/12/20 07:46:00;;;;;;;15.98;11.88;;;;;;;4.06;63.95;99742.94;5079657;28;20044;-72
2021/12/20 07:48:32;;;;;;;19.55;13.77;;;;;;;4.01;64.00;99746.63;5088438;28;20054;-75
2021/12/20 07:51:01;;;;;;;13.20;9.85;;;;;;;4.04;63.75;99742.19;5100296;28;20044;-75
2021/12/20 07:53:28;;;;;;;15.10;10.18;;;;;;;4.06;63.86;99748.19;5099881;28;20043;-75
2021/12/20 07:55:55;;;;;;;13.13;11.65;;;;;;;4.07;63.76;99745.50;5101722;28;20131;-76
2021/12/20 07:58:23;;;;;;;14.73;11.05;;;;;;;4.04;63.90;99752.66;5101169;28;20338;-74
2021/12/20 08:00:50;;;;;;;10.02;9.00;;;;;;;4.06;63.85;99759.47;5102730;28;20503;-75
2021/12/20 08:03:20;;;;;;;17.55;11.90;;;;;;;4.10;63.95;99754.91;5101992;28;20040;-74
2021/12/20 08:05:47;;;;;;;16.85;12.25;;;;;;;4.04;64.16;99763.09;5103399;28;20073;-75
2021/12/20 08:08:14;;;;;;;17.75;12.20;;;;;;;4.03;64.43;99764.84;5103682;28;20071;-75
2021/12/20 08:10:41;;;;;;;16.63;11.85;;;;;;;3.98;64.61;99767.72;5105969;28;20143;-75
2021/12/20 08:13:10;;;;;;;14.40;11.20;;;;;;;3.91;65.02;99755.91;5111557;28;20062;-77
2021/12/20 08:15:38;;;;;;;15.55;12.13;;;;;;;3.86;65.40;99778.81;5102898;28;20058;-75
2021/12/20 08:18:07;;;;;;;14.63;10.82;;;;;;;3.86;65.44;99768.38;5103089;28;20558;-77
2021/12/20 08:20:35;;;;;;;13.82;11.95;;;;;;;3.82;65.46;99762.47;5108883;28;20217;-74
2021/12/20 08:23:03;;;;;;;14.95;11.43;;;;;;;3.82;65.45;99754.63;5108892;28;20097;-77
2021/12/20 08:25:30;;;;;;;16.30;10.30;;;;;;;3.88;65.10;99774.34;5104844;28;20495;-75
2021/12/20 08:28:02;;;;;;;17.58;13.82;;;;;;;3.89;65.42;99759.50;5102421;28;20565;-75
2021/12/20 08:30:29;;;;;;;16.73;12.75;;;;;;;3.88;65.30;99773.50;5099156;28;20047;-76
2021/12/20 08:32:56;;;;;;;22.15;16.45;;;;;;;3.93;65.49;99777.56;5111251;28;20048;-75
2021/12/20 08:35:24;;;;;;;21.92;15.98;;;;;;;3.94;65.06;99779.28;5102751;28;20043;-76
2021/12/20 08:37:54;;;;;;;19.38;15.40;;;;;;;3.99;65.03;99777.22;5098334;28;20494;-75
2021/12/20 08:40:21;;;;;;;27.80;18.95;;;;;;;4.05;64.91;99778.66;5098630;28;20043;-77
2021/12/20 08:42:48;;;;;;;20.33;14.02;;;;;;;4.08;64.77;99790.75;5103251;28;20197;-73
2021/12/20 08:45:21;;;;;;;17.40;12.98;;;;;;;4.10;64.53;99787.13;5100806;28;20047;-78
2021/12/20 08:47:48;;;;;;;12.90;11.52;;;;;;;4.00;64.54;99786.78;5098633;28;20104;-75
2021/12/20 08:50:17;;;;;;;13.35;11.00;;;;;;;4.06;64.16;99806.50;5075901;28;20096;-74
2021/12/20 08:52:44;;;;;;;15.02;11.60;;;;;;;4.09;64.22;99790.66;5099911;28;20085;-76
2021/12/20 08:55:14;;;;;;;15.25;10.93;;;;;;;4.11;63.75;99806.28;5099928;28;20124;-74
2021/12/20 08:57:41;;;;;;;14.90;8.48;;;;;;;4.06;63.97;99811.72;5098873;28;20062;-75
2021/12/20 09:00:14;;;;;;;15.77;10.82;;;;;;;4.17;63.83;99814.63;5101041;28;20040;-76
2021/12/20 09:02:42;;;;;;;13.45;10.82;;;;;;;4.19;63.68;99811.94;5101179;28;20126;-75
2021/12/20 09:05:12;;;;;;;14.63;11.35;;;;;;;4.10;63.95;99820.25;5099471;28;20625;-77
2021/12/20 09:07:41;;;;;;;14.07;10.32;;;;;;;4.06;63.63;99816.97;5101917;28;20044;-75
2021/12/20 09:10:09;;;;;;;13.38;10.43;;;;;;;4.15;63.27;99826.09;5102325;28;20529;-75
2021/12/20 09:12:38;;;;;;;14.93;10.45;;;;;;;4.20;62.93;99817.06;5105157;28;20066;-74
2021/12/20 09:15:08;;;;;;;16.08;9.40;;;;;;;4.25;62.33;99805.53;5100685;28;20116;-76
2021/12/20 09:17:35;;;;;;;14.57;8.52;;;;;;;4.28;62.26;99829.72;5105882;28;20764;-76
2021/12/20 09:20:03;;;;;;;11.43;8.32;;;;;;;4.33;62.19;99817.25;5099000;28;20047;-75
2021/12/20 09:22:38;;;;;;;15.88;9.32;;;;;;;4.38;62.35;99810.03;5102089;28;20569;-77
2021/12/20 09:25:06;;;;;;;20.50;12.85;;;;;;;4.50;61.79;99815.50;5100028;28;20055;-74
2021/12/20 09:27:33;;;;;;;20.42;11.68;;;;;;;4.56;61.90;99812.56;5064305;28;20043;-76
2021/12/20 09:30:01;;;;;;;14.10;9.13;;;;;;;4.64;61.25;99814.75;5100352;28;20047;-76
2021/12/20 09:32:28;;;;;;;16.90;8.80;;;;;;;4.64;61.18;99825.22;5100318;28;20055;-74
2021/12/20 09:34:55;;;;;;;14.23;7.60;;;;;;;4.57;61.22;99819.47;5102157;28;20043;-78
2021/12/20 09:37:23;;;;;;;12.25;9.13;;;;;;;4.58;60.72;99813.31;5099367;28;20233;-75
2021/12/20 09:39:53;;;;;;;12.15;6.78;;;;;;;4.57;60.49;99817.72;5100299;28;20594;-76
2021/12/20 09:42:21;;;;;;;12.15;6.90;;;;;;;4.55;60.14;99819.56;5099552;28;20088;-76
2021/12/20 09:44:49;;;;;;;9.05;5.95;;;;;;;4.58;59.99;99813.31;5101456;28;20052;-73
2021/12/20 09:47:17;;;;;;;12.13;8.00;;;;;;;4.58;59.90;99813.31;5101207;28;20108;-75
2021/12/20 09:49:44;;;;;;;13.77;8.40;;;;;;;4.55;59.80;99816.09;5086675;28;20552;-74
2021/12/20 09:52:12;;;;;;;12.80;7.05;;;;;;;4.53;59.58;99816.19;5085328;28;20048;-70
2021/12/20 09:54:39;;;;;;;16.58;8.57;;;;;;;4.50;59.40;99813.75;5096382;28;20482;-71
2021/12/20 09:57:12;;;;;;;17.23;9.15;;;;;;;4.52;59.71;99816.25;5109896;28;20238;-77
2021/12/20 09:59:39;;;;;;;8.25;5.88;;;;;;;4.42;59.46;99810.69;5103926;28;20047;-81
2021/12/20 10:02:10;;;;;;;13.90;6.32;;;;;;;4.42;59.59;99815.94;5090550;28;20136;-70
2021/12/20 10:04:38;;;;;;;13.18;7.65;;;;;;;4.43;59.76;99819.38;5094708;28;20054;-75
2021/12/20 10:07:05;;;;;;;11.85;7.63;;;;;;;4.40;59.92;99812.56;5095889;28;20048;-78
2021/12/20 10:09:35;;;;;;;27.05;16.92;;;;;;;4.42;60.11;99829.00;5096962;28;20119;-75
2021/12/20 10:12:13;;;;;;;45.78;25.20;;;;;;;4.46;60.35;99827.06;5091842;28;20075;-70
2021/12/20 10:14:55;;;;;;;13.48;7.47;;;;;;;4.37;60.52;99816.16;5101003;28;20088;-71
2021/12/20 10:17:23;;;;;;;20.90;9.95;;;;;;;4.35;60.85;99832.88;5092823;28;20052;-72
2021/12/20 10:19:51;;;;;;;22.02;11.60;;;;;;;4.35;61.24;99828.47;5099099;28;20149;-72
2021/12/20 10:22:25;;;;;;;12.18;7.28;;;;;;;4.19;61.67;99835.44;5097643;28;20044;-76
2021/12/20 10:24:55;;;;;;;14.48;7.95;;;;;;;4.13;62.42;99844.47;5098963;28;20051;-74
2021/12/20 10:27:30;;;;;;;16.63;9.32;;;;;;;4.22;62.37;99843.13;5095119;28;20043;-71
2021/12/20 10:29:57;;;;;;;17.02;9.65;;;;;;;4.34;61.70;99839.88;5092313;28;20073;-75
2021/12/20 10:32:41;;;;;;;15.48;7.95;;;;;;;4.46;61.22;99846.22;5095331;28;20055;-76
2021/12/20 10:35:43;;;;;;;16.65;11.02;;;;;;;4.49;60.65;99845.22;5092902;28;20089;-71
2021/12/20 10:38:27;;;;;;;15.45;8.35;;;;;;;4.49;60.20;99850.44;5015637;28;20060;-72
2021/12/20 10:40:56;;;;;;;13.52;7.60;;;;;;;4.57;59.75;99848.25;5011122;28;20052;-73
2021/12/20 10:43:25;;;;;;;12.48;6.30;;;;;;;4.58;58.63;99845.56;5022547;28;20641;-69
2021/12/20 10:45:54;;;;;;;11.68;8.63;;;;;;;4.64;58.95;99854.84;5022860;28;20048;-71
2021/12/20 10:48:21;;;;;;;15.18;8.80;;;;;;;4.72;58.98;99851.81;5017881;28;20124;-73
2021/12/20 10:50:49;;;;;;;14.40;10.02;;;;;;;4.71;59.35;99858.81;5019280;28;20107;-76
2021/12/20 10:53:21;;;;;;;16.80;7.07;;;;;;;4.74;59.58;99849.97;5018536;28;20088;-74
2021/12/20 10:55:54;;;;;;;13.80;7.55;;;;;;;4.64;60.29;99865.28;5019831;28;20719;-75
2021/12/20 10:58:30;;;;;;;11.43;7.72;;;;;;;4.54;60.72;99866.75;5020756;28;20124;-69
2021/12/20 11:01:16;;;;;;;12.80;8.35;;;;;;;4.51;61.31;99865.13;5017824;28;20096;-73
2021/12/20 11:03:45;;;;;;;9.73;6.80;;;;;;;4.41;61.74;99861.28;5016531;28;20049;-73
2021/12/20 11:06:38;;;;;;;11.43;6.93;;;;;;;4.42;62.12;99864.78;5021966;28;20045;-77
2021/12/20 11:09:13;;;;;;;9.95;6.32;;;;;;;4.43;62.11;99862.09;5017173;28;20049;-70
2021/12/20 11:11:47;;;;;;;13.25;7.10;;;;;;;4.40;62.10;99862.25;5022497;28;20037;-71
2021/12/20 11:14:14;;;;;;;11.93;5.65;;;;;;;4.38;61.97;99862.31;5026443;28;20116;-72
2021/12/20 11:16:42;;;;;;;12.30;9.35;;;;;;;4.37;62.07;99850.16;5090126;28;20536;-71
2021/12/20 11:19:19;;;;;;;13.32;8.68;;;;;;;4.53;62.02;99865.88;5092304;28;20040;-72
2021/12/20 11:21:49;;;;;;;16.08;9.30;;;;;;;4.61;61.69;99865.47;5087161;28;20096;-73
2021/12/20 11:24:17;;;;;;;14.88;9.68;;;;;;;4.62;61.90;99867.16;5090294;28;20051;-69
2021/12/20 11:26:46;;;;;;;19.98;10.93;;;;;;;4.67;61.97;99867.75;5093433;28;20085;-72
2021/12/20 11:29:14;;;;;;;13.88;10.82;;;;;;;4.73;61.74;99858.72;5088139;28;20051;-74
2021/12/20 11:31:41;;;;;;;15.73;11.27;;;;;;;4.65;61.42;99866.16;5091923;28;20438;-73
2021/12/20 11:34:08;;;;;;;15.20;9.52;;;;;;;4.68;61.24;99872.06;5090673;28;20047;-70
2021/12/20 11:36:36;;;;;;;14.55;11.45;;;;;;;4.67;61.15;99880.84;5086711;28;20105;-72
2021/12/20 11:39:04;;;;;;;11.32;8.43;;;;;;;4.54;60.89;99878.03;5087788;28;20213;-74
2021/12/20 11:41:31;;;;;;;10.30;8.80;;;;;;;4.44;60.64;99878.59;5088887;28;20108;-73
2021/12/20 11:44:01;;;;;;;9.48;7.35;;;;;;;4.35;60.91;99886.00;5088482;28;20047;-74
2021/12/20 11:46:34;;;;;;;8.82;6.25;;;;;;;4.42;60.72;99883.09;5085131;28;20052;-68
2021/12/20 11:49:01;;;;;;;8.77;5.28;;;;;;;4.35;60.41;99874.72;5088744;28;20153;-69
2021/12/20 11:51:28;;;;;;;23.27;8.85;;;;;;;4.32;60.72;99880.09;5089538;28;20116;-73
2021/12/20 11:53:54;;;;;;;10.98;7.57;;;;;;;4.30;61.07;99874.94;5090952;28;20101;-68
2021/12/20 11:56:37;;;;;;;10.48;7.18;;;;;;;4.20;60.93;99886.81;5089867;28;20295;-69